Sitka, South Dakota
Current Conditions -  °F | °C
As of 2:52 PM on Friday 24 Oct 2014 (Local Time) from KMBG Reporting Station
Clear Clear  
Wind Chill: 24°   Ceiling: Unl
Heat Index: 24°   Visibility: 10mi
Dew Point:   Wind: 16mph
Humidity: 27%   Direction: 330°NNW
Pressure: 29.89"   Gusts: NA
Location:  45.4184°N, 100.09°W
Report Text: KMBG 241952Z AUTO 33014KT 10SM CLR 24/04 A2989 RMK AO2 SLP120 T02440044
Loading
Personal Weather Stations






























Interactive Weather Map
Tropical Storm Tracking
New forecast layout! Learn more

10-Day Weather Forecast

Advertisements
Track Severe Weather on mobile